Time;durP1;ratioP1;P1;durP2;ratioP2;P2;SDS_P1;SDS_P2;PMS_P1;PMS_P2;Temp;Humidity;BMP_temperature;BMP_pressure;BME280_temperature;BME280_humidity;BME280_pressure;Samples;Min_cycle;Max_cycle;Signal;HPM_P1;HPM_P2
2024/01/25 04:55:37;;;;;;;;;;;6.50;99.90;;;;;;5112642;22;19948;-76
2024/01/25 04:58:04;;;;;;;;;;;6.40;99.90;;;;;;5033810;28;20016;-76
2024/01/25 05:00:30;;;;;;;;;;;6.40;99.90;;;;;;5033861;28;19929;-76
2024/01/25 05:02:57;;;;;;;;;;;6.40;99.90;;;;;;5033835;28;19925;-76
2024/01/25 05:05:23;;;;;;;;;;;6.40;99.90;;;;;;5033598;28;19925;-75
2024/01/25 05:07:50;;;;;;;;;;;6.40;99.90;;;;;;5033950;28;19948;-75
2024/01/25 05:10:17;;;;;;;;;;;6.40;99.90;;;;;;5033336;28;19925;-75
2024/01/25 05:12:44;;;;;;;;;;;6.40;99.90;;;;;;5033657;28;19925;-75
2024/01/25 05:15:11;;;;;;;;;;;6.40;99.90;;;;;;5033633;28;19929;-75
2024/01/25 05:17:38;;;;;;;;;;;6.40;99.90;;;;;;5033819;28;19955;-76
2024/01/25 05:20:05;;;;;;;;;;;6.40;99.90;;;;;;5033479;28;19932;-75
2024/01/25 05:22:31;;;;;;;;;;;6.40;99.90;;;;;;5033302;28;19928;-75
2024/01/25 05:24:58;;;;;;;;;;;6.40;99.90;;;;;;5033094;28;20341;-75
2024/01/25 05:27:24;;;;;;;;;;;6.40;99.90;;;;;;5033144;28;19932;-75
2024/01/25 05:29:52;;;;;;;;;;;6.40;99.90;;;;;;5033748;28;19926;-75
2024/01/25 05:32:21;;;;;;;;;;;6.40;99.90;;;;;;5033509;28;19925;-75
2024/01/25 05:34:47;;;;;;;;;;;6.40;99.90;;;;;;5033487;28;19932;-76
2024/01/25 05:37:14;;;;;;;;;;;6.40;99.90;;;;;;5033595;28;19925;-75
2024/01/25 05:39:40;;;;;;;;;;;6.50;99.90;;;;;;5033603;28;20028;-76
2024/01/25 05:42:08;;;;;;;;;;;6.40;99.90;;;;;;5033392;28;19925;-75
2024/01/25 05:44:35;;;;;;;;;;;6.40;99.90;;;;;;5033060;28;19932;-75
2024/01/25 05:47:03;;;;;;;;;;;6.50;99.90;;;;;;5034406;28;19932;-75
2024/01/25 05:49:29;;;;;;;;;;;6.50;99.90;;;;;;5037483;28;19931;-76
2024/01/25 05:51:56;;;;;;;;;;;6.40;99.90;;;;;;5037712;28;19932;-76
2024/01/25 05:54:22;;;;;;;;;;;6.40;99.90;;;;;;5037284;28;19936;-76
2024/01/25 05:56:49;;;;;;;;;;;6.50;99.90;;;;;;5037943;28;19926;-79
2024/01/25 05:59:15;;;;;;;;;;;6.50;99.90;;;;;;5038377;28;19925;-77
2024/01/25 06:01:42;;;;;;;;;;;6.50;99.90;;;;;;5036982;28;19929;-77
2024/01/25 06:04:10;;;;;;;;;;;6.50;99.90;;;;;;5037658;28;19960;-75
2024/01/25 06:06:36;;;;;;;;;;;6.50;99.90;;;;;;5036517;28;20382;-73
2024/01/25 06:09:05;;;;;;;;;;;6.50;99.90;;;;;;5036372;28;19936;-71
2024/01/25 06:11:33;;;;;;;;;;;6.50;99.90;;;;;;5036668;28;20107;-75
2024/01/25 06:13:59;;;;;;;;;;;6.50;99.90;;;;;;5036670;28;19929;-73
2024/01/25 06:16:26;;;;;;;;;;;6.50;99.90;;;;;;5036536;28;19925;-73
2024/01/25 06:18:52;;;;;;;;;;;6.50;99.90;;;;;;5036540;28;19932;-74
2024/01/25 06:21:20;;;;;;;;;;;6.50;99.90;;;;;;5037309;28;19932;-74
2024/01/25 06:23:47;;;;;;;;;;;6.50;99.90;;;;;;5036131;28;20382;-73
2024/01/25 06:26:13;;;;;;;;;;;6.50;99.90;;;;;;5036394;28;19936;-73
2024/01/25 06:28:41;;;;;;;;;;;6.50;99.90;;;;;;5036373;28;19940;-73
2024/01/25 06:31:07;;;;;;;;;;;6.50;99.90;;;;;;5036383;28;19968;-73
2024/01/25 06:33:34;;;;;;;;;;;6.40;99.90;;;;;;5036941;28;19968;-74
2024/01/25 06:36:01;;;;;;;;;;;6.40;99.90;;;;;;5036296;28;20408;-73
2024/01/25 06:38:28;;;;;;;;;;;6.40;99.90;;;;;;5036319;28;19925;-73
2024/01/25 06:40:55;;;;;;;;;;;6.40;99.90;;;;;;5036192;28;20321;-73
2024/01/25 06:43:21;;;;;;;;;;;6.40;99.90;;;;;;5036189;28;19948;-73
2024/01/25 06:45:48;;;;;;;;;;;6.30;99.90;;;;;;5036379;28;19948;-73
2024/01/25 06:48:15;;;;;;;;;;;6.30;99.90;;;;;;5035844;28;20378;-73
2024/01/25 06:50:41;;;;;;;;;;;6.30;99.90;;;;;;5036166;28;19932;-73
2024/01/25 06:53:08;;;;;;;;;;;6.30;99.90;;;;;;5036533;28;19925;-73
2024/01/25 06:55:35;;;;;;;;;;;6.30;99.90;;;;;;5035957;28;19932;-73
2024/01/25 06:58:02;;;;;;;;;;;6.30;99.90;;;;;;5035643;28;19932;-73
2024/01/25 07:00:29;;;;;;;;;;;6.30;99.90;;;;;;5036006;28;19929;-73
2024/01/25 07:02:55;;;;;;;;;;;6.30;99.90;;;;;;5036397;28;19932;-73
2024/01/25 07:05:22;;;;;;;;;;;6.30;99.90;;;;;;5035744;28;19925;-73
2024/01/25 07:07:48;;;;;;;;;;;6.30;99.90;;;;;;5035709;28;19925;-73
2024/01/25 07:10:15;;;;;;;;;;;6.30;99.90;;;;;;5035655;28;19933;-73
2024/01/25 07:12:43;;;;;;;;;;;6.30;99.90;;;;;;5035797;28;19925;-73
2024/01/25 07:15:09;;;;;;;;;;;6.30;99.90;;;;;;5035107;28;19926;-73
2024/01/25 07:17:36;;;;;;;;;;;6.30;99.90;;;;;;5035413;28;19925;-73
2024/01/25 07:20:03;;;;;;;;;;;6.30;99.90;;;;;;5035457;28;19925;-73
2024/01/25 07:22:29;;;;;;;;;;;6.30;99.90;;;;;;5035361;28;20011;-73
2024/01/25 07:24:56;;;;;;;;;;;6.30;99.90;;;;;;5035313;28;19925;-73
2024/01/25 07:27:22;;;;;;;;;;;6.30;99.90;;;;;;5034900;28;20402;-73
2024/01/25 07:29:50;;;;;;;;;;;6.20;99.90;;;;;;5035268;28;19925;-73
2024/01/25 07:32:18;;;;;;;;;;;6.20;99.90;;;;;;5035280;28;19925;-73
2024/01/25 07:34:45;;;;;;;;;;;6.20;99.90;;;;;;5035206;28;19935;-73
2024/01/25 07:37:12;;;;;;;;;;;6.20;99.90;;;;;;5035241;28;19925;-73
2024/01/25 07:39:38;;;;;;;;;;;6.30;99.90;;;;;;5035005;28;19976;-74
2024/01/25 07:42:05;;;;;;;;;;;6.30;99.90;;;;;;5035115;28;19975;-73
2024/01/25 07:44:32;;;;;;;;;;;6.20;99.90;;;;;;5034941;28;19950;-73
2024/01/25 07:47:00;;;;;;;;;;;6.30;99.90;;;;;;5034513;28;20302;-73
2024/01/25 07:49:26;;;;;;;;;;;6.30;99.90;;;;;;5034626;28;20402;-73
2024/01/25 07:51:53;;;;;;;;;;;6.30;99.90;;;;;;5034857;28;19956;-74
2024/01/25 07:54:19;;;;;;;;;;;6.20;99.90;;;;;;5034938;28;20016;-73
2024/01/25 07:56:46;;;;;;;;;;;6.20;99.90;;;;;;5034669;28;19925;-74
2024/01/25 07:59:12;;;;;;;;;;;6.20;99.90;;;;;;5034709;28;19932;-73
2024/01/25 08:01:39;;;;;;;;;;;6.20;99.90;;;;;;5034645;28;19925;-73
2024/01/25 08:04:07;;;;;;;;;;;6.20;99.90;;;;;;5034199;28;20358;-74
2024/01/25 08:06:33;;;;;;;;;;;6.20;99.90;;;;;;5034690;28;19925;-74
2024/01/25 08:09:00;;;;;;;;;;;6.30;99.90;;;;;;5034179;28;19925;-73
2024/01/25 08:11:26;;;;;;;;;;;6.30;99.90;;;;;;5034216;28;19925;-73
2024/01/25 08:13:53;;;;;;;;;;;6.30;99.90;;;;;;5034378;28;19925;-74
2024/01/25 08:16:20;;;;;;;;;;;6.30;99.90;;;;;;5034657;28;19925;-74
2024/01/25 08:18:46;;;;;;;;;;;6.30;99.90;;;;;;5034304;28;19960;-73
2024/01/25 08:21:15;;;;;;;;;;;6.30;99.90;;;;;;5034334;28;19947;-74
2024/01/25 08:23:41;;;;;;;;;;;6.40;99.90;;;;;;5034215;28;19936;-74
2024/01/25 08:26:09;;;;;;;;;;;6.30;99.90;;;;;;5034114;28;19925;-74
2024/01/25 08:28:36;;;;;;;;;;;6.30;99.90;;;;;;5034135;28;20353;-73
2024/01/25 08:31:03;;;;;;;;;;;6.30;99.90;;;;;;5034214;28;19925;-73
2024/01/25 08:33:29;;;;;;;;;;;6.30;99.90;;;;;;5034165;28;19983;-74
2024/01/25 08:35:56;;;;;;;;;;;6.40;99.90;;;;;;5034644;28;19925;-73
2024/01/25 08:38:23;;;;;;;;;;;6.40;99.90;;;;;;5033821;28;20409;-73
2024/01/25 08:40:50;;;;;;;;;;;6.40;99.90;;;;;;5034296;28;19925;-74
2024/01/25 08:43:17;;;;;;;;;;;6.40;99.90;;;;;;5034147;28;20000;-73
2024/01/25 08:45:44;;;;;;;;;;;6.40;99.90;;;;;;5033766;28;19972;-73
2024/01/25 08:48:10;;;;;;;;;;;6.40;99.90;;;;;;5034062;28;19933;-73
2024/01/25 08:50:37;;;;;;;;;;;6.40;99.90;;;;;;5034138;28;19925;-73
2024/01/25 08:53:05;;;;;;;;;;;6.50;99.90;;;;;;5034179;28;19925;-73
2024/01/25 08:55:33;;;;;;;;;;;6.50;99.90;;;;;;5033813;28;19932;-74
2024/01/25 08:58:00;;;;;;;;;;;6.50;99.90;;;;;;5034122;28;19925;-74
2024/01/25 09:00:26;;;;;;;;;;;6.50;99.90;;;;;;5033989;28;19925;-73
2024/01/25 09:02:53;;;;;;;;;;;6.50;99.90;;;;;;5033998;28;19932;-73
2024/01/25 09:05:19;;;;;;;;;;;6.60;99.90;;;;;;5033794;28;19925;-73
2024/01/25 09:07:47;;;;;;;;;;;6.60;99.90;;;;;;5033907;28;19936;-72
2024/01/25 09:10:14;;;;;;;;;;;6.70;99.90;;;;;;5033902;28;19932;-72
2024/01/25 09:12:42;;;;;;;;;;;6.70;99.90;;;;;;5033709;28;19932;-72
2024/01/25 09:15:09;;;;;;;;;;;6.80;99.90;;;;;;5033435;28;19925;-73
2024/01/25 09:17:37;;;;;;;;;;;6.80;99.90;;;;;;5033557;28;19929;-73
2024/01/25 09:20:04;;;;;;;;;;;6.90;99.90;;;;;;5033764;28;19932;-73
2024/01/25 09:22:30;;;;;;;;;;;7.00;99.90;;;;;;5037287;28;19928;-73
2024/01/25 09:24:57;;;;;;;;;;;7.10;99.90;;;;;;5038246;28;20317;-73
2024/01/25 09:27:23;;;;;;;;;;;7.10;99.90;;;;;;5037469;28;19929;-73
2024/01/25 09:29:51;;;;;;;;;;;7.10;99.90;;;;;;5037555;28;19929;-73
2024/01/25 09:32:20;;;;;;;;;;;7.10;99.90;;;;;;5037546;28;19925;-73
2024/01/25 09:34:47;;;;;;;;;;;7.10;99.90;;;;;;5037576;28;19974;-74
2024/01/25 09:37:14;;;;;;;;;;;7.00;99.90;;;;;;5037557;28;19934;-75
2024/01/25 09:39:41;;;;;;;;;;;7.00;99.90;;;;;;5037389;28;19925;-75
2024/01/25 09:42:08;;;;;;;;;;;7.00;99.90;;;;;;5037318;28;19932;-75
2024/01/25 09:44:34;;;;;;;;;;;7.00;99.90;;;;;;5037245;28;19929;-75
2024/01/25 09:47:04;;;;;;;;;;;7.10;99.90;;;;;;5037169;28;19932;-75
2024/01/25 09:49:30;;;;;;;;;;;7.10;99.90;;;;;;5036788;28;20383;-75
2024/01/25 09:51:57;;;;;;;;;;;7.40;99.90;;;;;;5037085;28;19932;-75
2024/01/25 09:54:24;;;;;;;;;;;7.70;99.90;;;;;;5037101;28;19932;-75
2024/01/25 09:56:52;;;;;;;;;;;8.10;99.90;;;;;;5036663;28;20302;-75
2024/01/25 09:59:18;;;;;;;;;;;8.50;99.90;;;;;;5037098;28;19932;-75
2024/01/25 10:01:46;;;;;;;;;;;8.50;99.90;;;;;;5036989;28;19925;-75
2024/01/25 10:04:14;;;;;;;;;;;8.50;99.90;;;;;;5036538;28;20370;-75
2024/01/25 10:06:40;;;;;;;;;;;8.50;99.90;;;;;;5036771;28;19928;-75
2024/01/25 10:09:09;;;;;;;;;;;8.50;99.90;;;;;;5036952;28;19929;-75
2024/01/25 10:11:37;;;;;;;;;;;8.50;99.90;;;;;;5036937;28;19928;-75
2024/01/25 10:14:04;;;;;;;;;;;8.60;99.90;;;;;;5036737;28;20386;-75
2024/01/25 10:16:30;;;;;;;;;;;8.70;99.90;;;;;;5036867;28;19933;-75
2024/01/25 10:18:57;;;;;;;;;;;8.70;99.90;;;;;;5036333;28;20287;-75
2024/01/25 10:21:27;;;;;;;;;;;8.70;99.90;;;;;;5037187;28;19925;-76
2024/01/25 10:23:54;;;;;;;;;;;8.80;99.90;;;;;;5036707;28;20023;-76
2024/01/25 10:26:21;;;;;;;;;;;8.70;99.90;;;;;;5036690;28;19952;-76
2024/01/25 10:28:51;;;;;;;;;;;8.60;99.90;;;;;;5036572;28;19925;-76
2024/01/25 10:31:18;;;;;;;;;;;8.60;99.90;;;;;;5036475;28;20028;-76
2024/01/25 10:33:45;;;;;;;;;;;8.60;99.90;;;;;;5035625;28;19925;-76
2024/01/25 10:36:12;;;;;;;;;;;8.60;99.90;;;;;;5036357;28;19925;-76
2024/01/25 10:38:41;;;;;;;;;;;8.60;99.90;;;;;;5036168;28;19925;-76
2024/01/25 10:41:07;;;;;;;;;;;8.60;99.90;;;;;;5036280;28;19936;-76
2024/01/25 10:43:34;;;;;;;;;;;8.70;99.90;;;;;;5036082;28;19948;-76
2024/01/25 10:46:01;;;;;;;;;;;8.70;99.90;;;;;;5036374;28;19932;-76
2024/01/25 10:48:28;;;;;;;;;;;8.80;99.90;;;;;;5035944;28;19929;-76
2024/01/25 10:50:54;;;;;;;;;;;8.90;99.90;;;;;;5036090;28;19925;-76
2024/01/25 10:53:22;;;;;;;;;;;9.00;99.90;;;;;;5035826;28;19925;-76
2024/01/25 10:55:50;;;;;;;;;;;9.10;99.90;;;;;;5035634;28;19925;-76
2024/01/25 10:58:17;;;;;;;;;;;9.10;99.90;;;;;;5036533;28;19937;-76
2024/01/25 11:00:51;;;;;;;;;;;9.10;99.90;;;;;;5035893;28;19925;-76
2024/01/25 11:03:18;;;;;;;;;;;9.20;99.90;;;;;;5035763;28;19929;-76
2024/01/25 11:05:45;;;;;;;;;;;9.10;99.90;;;;;;5035578;28;20382;-76
2024/01/25 11:08:18;;;;;;;;;;;9.20;99.90;;;;;;5035945;28;19933;-76
2024/01/25 11:10:49;;;;;;;;;;;9.20;99.90;;;;;;5035688;28;19933;-76
2024/01/25 11:13:17;;;;;;;;;;;9.30;99.90;;;;;;5035848;28;19925;-76
2024/01/25 11:15:43;;;;;;;;;;;9.40;99.90;;;;;;5035699;28;19925;-76
2024/01/25 11:18:10;;;;;;;;;;;9.40;99.90;;;;;;5035861;28;19925;-75
2024/01/25 11:20:37;;;;;;;;;;;9.40;99.90;;;;;;5035802;28;19932;-76
2024/01/25 11:23:05;;;;;;;;;;;9.40;99.90;;;;;;5035511;28;19925;-76
2024/01/25 11:25:32;;;;;;;;;;;9.50;99.90;;;;;;5035597;28;19963;-76
2024/01/25 11:27:59;;;;;;;;;;;9.50;99.90;;;;;;5035537;28;19932;-76
2024/01/25 11:30:27;;;;;;;;;;;9.60;99.90;;;;;;5035267;28;20279;-76
2024/01/25 11:32:54;;;;;;;;;;;9.60;99.90;;;;;;5035536;28;19925;-76
2024/01/25 11:35:20;;;;;;;;;;;9.60;99.90;;;;;;5035422;28;19933;-76
2024/01/25 11:37:47;;;;;;;;;;;9.60;99.90;;;;;;5034974;28;20397;-76
2024/01/25 11:40:14;;;;;;;;;;;9.60;99.90;;;;;;5035261;28;20314;-76
2024/01/25 11:42:42;;;;;;;;;;;9.50;99.90;;;;;;5035296;28;19932;-76
2024/01/25 11:45:10;;;;;;;;;;;9.60;99.90;;;;;;5034024;28;20390;-76
2024/01/25 11:47:39;;;;;;;;;;;9.50;99.90;;;;;;5035161;28;19975;-76
2024/01/25 11:50:06;;;;;;;;;;;9.50;99.90;;;;;;5035066;28;19931;-76
2024/01/25 11:52:33;;;;;;;;;;;9.60;99.90;;;;;;5034799;28;19925;-76
2024/01/25 11:55:00;;;;;;;;;;;9.60;99.90;;;;;;5034757;28;19932;-76
2024/01/25 11:57:26;;;;;;;;;;;9.60;99.90;;;;;;5035380;28;19933;-76
2024/01/25 11:59:53;;;;;;;;;;;9.60;99.90;;;;;;5034920;28;19925;-76
2024/01/25 12:02:20;;;;;;;;;;;9.60;99.90;;;;;;5034777;28;20394;-76
2024/01/25 12:04:48;;;;;;;;;;;9.70;99.90;;;;;;5034423;28;20395;-77
2024/01/25 12:07:15;;;;;;;;;;;9.70;99.90;;;;;;5036346;28;19925;-77
2024/01/25 12:09:41;;;;;;;;;;;9.80;99.90;;;;;;5037430;28;19932;-76
2024/01/25 12:12:10;;;;;;;;;;;9.80;99.90;;;;;;5037492;28;19933;-74
2024/01/25 12:14:36;;;;;;;;;;;9.80;99.90;;;;;;5038051;28;19925;-77
2024/01/25 12:17:04;;;;;;;;;;;9.70;99.90;;;;;;5036040;28;20286;-74
2024/01/25 12:19:30;;;;;;;;;;;9.70;99.90;;;;;;5036249;28;19925;-74
2024/01/25 12:21:58;;;;;;;;;;;9.70;99.90;;;;;;5036438;28;19925;-74
2024/01/25 12:24:25;;;;;;;;;;;9.70;99.90;;;;;;5036207;28;19925;-73
2024/01/25 12:26:56;;;;;;;;;;;9.70;99.90;;;;;;5037632;28;19925;-75
2024/01/25 12:29:27;;;;;;;;;;;9.70;99.90;;;;;;5036130;28;20380;-73
2024/01/25 12:31:54;;;;;;;;;;;9.70;99.90;;;;;;5035234;28;19925;-74
2024/01/25 12:34:20;;;;;;;;;;;9.70;99.90;;;;;;5033892;28;20440;-73
2024/01/25 12:36:47;;;;;;;;;;;9.70;99.90;;;;;;5034191;28;19932;-73
2024/01/25 12:39:15;;;;;;;;;;;9.70;99.90;;;;;;5034104;28;19924;-73
2024/01/25 12:41:41;;;;;;;;;;;9.70;99.90;;;;;;5034054;28;20456;-73
2024/01/25 12:44:08;;;;;;;;;;;9.70;99.90;;;;;;5033639;28;20326;-73
2024/01/25 12:46:35;;;;;;;;;;;9.60;99.90;;;;;;5034070;28;19932;-73
2024/01/25 12:49:03;;;;;;;;;;;9.60;99.90;;;;;;5033940;28;19925;-73
2024/01/25 12:51:29;;;;;;;;;;;9.60;99.90;;;;;;5034012;28;19968;-73
2024/01/25 12:53:56;;;;;;;;;;;9.60;99.90;;;;;;5034080;28;19925;-74
2024/01/25 12:56:24;;;;;;;;;;;9.60;99.90;;;;;;5033284;28;19925;-73
2024/01/25 12:58:50;;;;;;;;;;;9.60;99.90;;;;;;5034040;28;19929;-71
2024/01/25 13:01:17;;;;;;;;;;;9.60;99.90;;;;;;5033852;28;19933;-71
2024/01/25 13:03:46;;;;;;;;;;;9.70;99.90;;;;;;5034094;28;19925;-74
2024/01/25 13:06:12;;;;;;;;;;;9.70;99.90;;;;;;5034320;28;20382;-71
2024/01/25 13:08:39;;;;;;;;;;;9.70;99.90;;;;;;5033794;28;19925;-71
2024/01/25 13:11:05;;;;;;;;;;;9.70;99.90;;;;;;5034240;28;19925;-72
2024/01/25 13:13:33;;;;;;;;;;;9.70;99.90;;;;;;5033940;28;19934;-72
2024/01/25 13:16:00;;;;;;;;;;;9.70;99.90;;;;;;5034353;28;19929;-72
2024/01/25 13:18:27;;;;;;;;;;;9.60;99.90;;;;;;5033590;28;19932;-72
2024/01/25 13:20:53;;;;;;;;;;;9.60;99.90;;;;;;5033595;28;20290;-71
2024/01/25 13:23:20;;;;;;;;;;;9.60;99.90;;;;;;5033624;28;19932;-70
2024/01/25 13:25:47;;;;;;;;;;;9.60;99.90;;;;;;5033409;28;19926;-72
2024/01/25 13:28:13;;;;;;;;;;;9.60;99.90;;;;;;5033613;28;19925;-70
2024/01/25 13:30:41;;;;;;;;;;;9.50;99.90;;;;;;5034430;28;19948;-72
2024/01/25 13:33:08;;;;;;;;;;;9.50;99.90;;;;;;5033578;28;19948;-72
2024/01/25 13:35:34;;;;;;;;;;;9.50;99.90;;;;;;5033485;28;19925;-71
2024/01/25 13:38:01;;;;;;;;;;;9.50;99.90;;;;;;5033536;28;19925;-71
2024/01/25 13:40:34;;;;;;;;;;;9.50;99.90;;;;;;5033764;28;19976;-71
2024/01/25 13:43:00;;;;;;;;;;;9.60;99.90;;;;;;5033694;28;19929;-73
2024/01/25 13:45:27;;;;;;;;;;;9.60;99.90;;;;;;5034311;28;19929;-72
2024/01/25 13:47:55;;;;;;;;;;;9.60;99.90;;;;;;5034394;28;20485;-72
2024/01/25 13:50:26;;;;;;;;;;;9.60;99.90;;;;;;5034061;28;19933;-72
2024/01/25 13:52:52;;;;;;;;;;;11.00;99.90;;;;;;5035123;28;19964;-72
2024/01/25 13:55:19;;;;;;;;;;;9.50;99.90;;;;;;5033692;28;19936;-74
2024/01/25 13:57:53;;;;;;;;;;;9.50;99.90;;;;;;5036105;28;19925;-74
2024/01/25 14:00:21;;;;;;;;;;;9.50;99.90;;;;;;5034549;28;19929;-75
2024/01/25 14:02:47;;;;;;;;;;;9.30;99.90;;;;;;5035082;28;19925;-75
2024/01/25 14:05:17;;;;;;;;;;;9.40;99.90;;;;;;5033705;28;20314;-75
2024/01/25 14:07:45;;;;;;;;;;;9.40;99.90;;;;;;5035452;28;19932;-75
2024/01/25 14:10:14;;;;;;;;;;;9.50;99.90;;;;;;5037188;28;19925;-73
2024/01/25 14:12:44;;;;;;;;;;;9.50;99.90;;;;;;5037418;28;19929;-74
2024/01/25 14:15:13;;;;;;;;;;;9.50;99.90;;;;;;5036888;28;20389;-73
2024/01/25 14:17:40;;;;;;;;;;;9.60;99.90;;;;;;5037556;28;19929;-74
2024/01/25 14:20:08;;;;;;;;;;;9.60;99.90;;;;;;5037242;28;19925;-73
2024/01/25 14:22:36;;;;;;;;;;;9.60;99.90;;;;;;5036679;28;19932;-73
2024/01/25 14:25:03;;;;;;;;;;;9.60;99.90;;;;;;5036552;28;19925;-73
2024/01/25 14:27:29;;;;;;;;;;;9.50;99.90;;;;;;5036784;28;19929;-73
2024/01/25 14:29:56;;;;;;;;;;;9.50;99.90;;;;;;5036423;28;19925;-73
2024/01/25 14:32:23;;;;;;;;;;;9.50;99.90;;;;;;5036484;28;19926;-73
2024/01/25 14:34:49;;;;;;;;;;;9.50;99.90;;;;;;5036691;28;20028;-73
2024/01/25 14:37:16;;;;;;;;;;;9.40;99.90;;;;;;5036526;28;20290;-76
2024/01/25 14:39:44;;;;;;;;;;;9.30;99.90;;;;;;5035848;28;19932;-75
2024/01/25 14:42:11;;;;;;;;;;;9.30;99.90;;;;;;5036075;28;19925;-75
2024/01/25 14:44:38;;;;;;;;;;;9.30;99.90;;;;;;5035903;28;20354;-75
2024/01/25 14:47:05;;;;;;;;;;;9.30;99.90;;;;;;5036416;28;19925;-74
2024/01/25 14:49:31;;;;;;;;;;;9.30;99.90;;;;;;5035895;28;19925;-75
2024/01/25 14:51:58;;;;;;;;;;;9.30;99.90;;;;;;5036005;28;19925;-76
2024/01/25 14:54:26;;;;;;;;;;;9.20;99.90;;;;;;5035663;28;20386;-74
2024/01/25 14:56:53;;;;;;;;;;;9.20;99.90;;;;;;5035547;28;19926;-75
2024/01/25 14:59:20;;;;;;;;;;;9.20;99.90;;;;;;5035652;28;20379;-75
2024/01/25 15:01:47;;;;;;;;;;;9.20;99.90;;;;;;5036146;28;19925;-75
2024/01/25 15:04:14;;;;;;;;;;;9.10;99.90;;;;;;5035377;28;20379;-74
2024/01/25 15:06:42;;;;;;;;;;;9.20;99.90;;;;;;5038886;28;19936;-74
2024/01/25 15:09:09;;;;;;;;;;;9.10;99.90;;;;;;5040163;28;19925;-75
2024/01/25 15:11:35;;;;;;;;;;;9.10;99.90;;;;;;5039247;28;19932;-75
2024/01/25 15:14:03;;;;;;;;;;;9.10;99.90;;;;;;5038727;28;19925;-74
2024/01/25 15:16:30;;;;;;;;;;;9.20;99.90;;;;;;5038530;28;19929;-75
2024/01/25 15:18:57;;;;;;;;;;;9.10;99.90;;;;;;5038456;28;19972;-74
2024/01/25 15:21:23;;;;;;;;;;;9.10;99.90;;;;;;5038436;28;19932;-76
2024/01/25 15:23:51;;;;;;;;;;;9.10;99.90;;;;;;5038501;28;19925;-75
2024/01/25 15:26:17;;;;;;;;;;;9.10;99.90;;;;;;5038934;28;19934;-75
2024/01/25 15:28:45;;;;;;;;;;;9.00;99.90;;;;;;5038314;28;19929;-75
2024/01/25 15:31:13;;;;;;;;;;;9.10;99.90;;;;;;5037411;28;19925;-72
2024/01/25 15:33:39;;;;;;;;;;;9.00;99.90;;;;;;5037498;28;19939;-72
2024/01/25 15:36:06;;;;;;;;;;;9.00;99.90;;;;;;5036042;28;19925;-72
2024/01/25 15:38:32;;;;;;;;;;;9.00;99.90;;;;;;5035353;28;19925;-73
2024/01/25 15:40:59;;;;;;;;;;;8.90;99.90;;;;;;5035173;28;20275;-73
2024/01/25 15:43:25;;;;;;;;;;;8.90;99.90;;;;;;5034628;28;20298;-73
2024/01/25 15:45:52;;;;;;;;;;;8.90;99.90;;;;;;5035389;28;19932;-72
2024/01/25 15:48:20;;;;;;;;;;;8.80;99.90;;;;;;5035172;28;19925;-74
2024/01/25 15:50:47;;;;;;;;;;;8.80;99.90;;;;;;5034870;28;19925;-74
2024/01/25 15:53:15;;;;;;;;;;;8.80;99.90;;;;;;5034959;28;20032;-73
2024/01/25 15:55:42;;;;;;;;;;;8.70;99.90;;;;;;5034516;28;19932;-73
2024/01/25 15:58:09;;;;;;;;;;;8.70;99.90;;;;;;5035110;28;19983;-71
2024/01/25 16:00:35;;;;;;;;;;;8.60;99.90;;;;;;5034756;28;20021;-71
2024/01/25 16:03:02;;;;;;;;;;;8.60;99.90;;;;;;5034942;28;19925;-71
2024/01/25 16:05:30;;;;;;;;;;;8.60;99.90;;;;;;5034856;28;19929;-71
2024/01/25 16:07:57;;;;;;;;;;;8.60;99.90;;;;;;5035151;28;20099;-71
2024/01/25 16:10:25;;;;;;;;;;;8.50;99.90;;;;;;5035257;28;19932;-70
2024/01/25 16:12:52;;;;;;;;;;;8.50;99.90;;;;;;5034616;28;20359;-71
2024/01/25 16:15:19;;;;;;;;;;;8.40;99.90;;;;;;5034317;28;20449;-72
2024/01/25 16:17:45;;;;;;;;;;;8.40;99.90;;;;;;5034889;28;19964;-72
2024/01/25 16:20:13;;;;;;;;;;;8.30;99.90;;;;;;5034909;28;19979;-74
2024/01/25 16:22:41;;;;;;;;;;;8.30;99.90;;;;;;5034891;28;19948;-74
2024/01/25 16:25:08;;;;;;;;;;;8.20;99.90;;;;;;5034095;28;19925;-72
2024/01/25 16:27:35;;;;;;;;;;;8.20;99.90;;;;;;5034403;28;20008;-72
2024/01/25 16:30:02;;;;;;;;;;;8.10;99.90;;;;;;5033867;28;20402;-71
2024/01/25 16:32:29;;;;;;;;;;;8.00;99.90;;;;;;5033970;28;19926;-72
2024/01/25 16:34:55;;;;;;;;;;;7.90;99.90;;;;;;5034187;28;19932;-72
2024/01/25 16:37:22;;;;;;;;;;;7.80;99.90;;;;;;5034119;28;19925;-72
2024/01/25 16:39:49;;;;;;;;;;;7.70;99.90;;;;;;5033877;28;19925;-73
2024/01/25 16:42:16;;;;;;;;;;;7.50;99.90;;;;;;5033957;28;20405;-73
2024/01/25 16:44:43;;;;;;;;;;;7.40;99.90;;;;;;5034433;28;20004;-73
2024/01/25 16:47:09;;;;;;;;;;;7.40;99.90;;;;;;5034203;28;19932;-74
2024/01/25 16:49:36;;;;;;;;;;;7.40;99.90;;;;;;5034596;28;20425;-73
2024/01/25 16:52:03;;;;;;;;;;;7.30;99.90;;;;;;5034055;28;20298;-73
2024/01/25 16:54:30;;;;;;;;;;;7.20;99.90;;;;;;5034294;28;19932;-72
2024/01/25 16:56:58;;;;;;;;;;;7.20;99.90;;;;;;5034027;28;19925;-74
2024/01/25 16:59:27;;;;;;;;;;;7.20;99.90;;;;;;5034445;28;19932;-74
2024/01/25 17:01:54;;;;;;;;;;;7.40;99.90;;;;;;5034340;28;20028;-73
2024/01/25 17:04:20;;;;;;;;;;;7.30;99.90;;;;;;5034285;28;19932;-73
2024/01/25 17:06:47;;;;;;;;;;;7.30;99.90;;;;;;5034075;28;19932;-73
2024/01/25 17:09:14;;;;;;;;;;;7.30;99.90;;;;;;5033907;28;19975;-74
2024/01/25 17:11:41;;;;;;;;;;;7.40;99.90;;;;;;5034832;28;19936;-75
2024/01/25 17:14:09;;;;;;;;;;;7.40;99.90;;;;;;5035191;28;19932;-74
2024/01/25 17:16:36;;;;;;;;;;;7.50;99.90;;;;;;5035617;28;19932;-77
2024/01/25 17:19:02;;;;;;;;;;;7.50;99.90;;;;;;5034204;28;19925;-76
2024/01/25 17:21:29;;;;;;;;;;;7.50;99.90;;;;;;5033879;28;19948;-76
2024/01/25 17:23:57;;;;;;;;;;;7.50;99.90;;;;;;5034014;28;19925;-76
2024/01/25 17:26:24;;;;;;;;;;;7.60;99.90;;;;;;5034722;28;19932;-75
2024/01/25 17:28:50;;;;;;;;;;;7.60;99.90;;;;;;5034461;28;19929;-77
2024/01/25 17:31:18;;;;;;;;;;;7.60;99.90;;;;;;5034385;28;19931;-76
2024/01/25 17:33:45;;;;;;;;;;;7.60;99.90;;;;;;5034516;28;19925;-76
2024/01/25 17:36:12;;;;;;;;;;;7.60;99.90;;;;;;5034862;28;19929;-76
2024/01/25 17:38:39;;;;;;;;;;;7.60;99.90;;;;;;5035438;28;19925;-75
2024/01/25 17:41:14;;;;;;;;;;;7.60;99.90;;;;;;5034608;28;20361;-77
2024/01/25 17:43:41;;;;;;;;;;;7.60;99.90;;;;;;5035868;28;19929;-76
2024/01/25 17:46:08;;;;;;;;;;;7.60;99.90;;;;;;5037404;28;20291;-76
2024/01/25 17:48:35;;;;;;;;;;;7.60;99.90;;;;;;5037519;28;19932;-76
2024/01/25 17:51:04;;;;;;;;;;;7.60;99.90;;;;;;5037453;28;19929;-76
2024/01/25 17:53:31;;;;;;;;;;;7.60;99.90;;;;;;5037278;28;20016;-76
2024/01/25 17:55:57;;;;;;;;;;;7.60;99.90;;;;;;5037334;28;20013;-76
2024/01/25 17:58:24;;;;;;;;;;;7.50;99.90;;;;;;5037359;28;20329;-76
2024/01/25 18:00:52;;;;;;;;;;;7.50;99.90;;;;;;5037302;28;19948;-79
2024/01/25 18:03:21;;;;;;;;;;;7.60;99.90;;;;;;5039454;28;19929;-77
2024/01/25 18:05:49;;;;;;;;;;;7.50;99.90;;;;;;5040443;28;19960;-75
2024/01/25 18:08:16;;;;;;;;;;;7.60;99.90;;;;;;5039988;28;19925;-75
2024/01/25 18:10:42;;;;;;;;;;;7.50;99.90;;;;;;5039536;28;19929;-75
2024/01/25 18:13:10;;;;;;;;;;;7.60;99.90;;;;;;5039150;28;19932;-75
2024/01/25 18:15:37;;;;;;;;;;;7.50;99.90;;;;;;5038969;28;20011;-76
2024/01/25 18:18:04;;;;;;;;;;;7.50;99.90;;;;;;5041220;28;19925;-75
2024/01/25 18:20:30;;;;;;;;;;;7.50;99.90;;;;;;5041641;28;19933;-75
2024/01/25 18:22:58;;;;;;;;;;;7.50;99.90;;;;;;5041854;28;19932;-76
2024/01/25 18:25:25;;;;;;;;;;;7.40;99.90;;;;;;5042046;28;19932;-76
2024/01/25 18:27:53;;;;;;;;;;;7.40;99.90;;;;;;5043240;28;19977;-76
2024/01/25 18:30:21;;;;;;;;;;;7.40;99.90;;;;;;5042928;28;20445;-75
2024/01/25 18:32:47;;;;;;;;;;;7.40;99.90;;;;;;5042203;28;19975;-76
2024/01/25 18:35:15;;;;;;;;;;;7.40;99.90;;;;;;5041299;28;19925;-76
2024/01/25 18:37:41;;;;;;;;;;;7.30;99.90;;;;;;5041011;28;19935;-76
2024/01/25 18:40:10;;;;;;;;;;;7.30;99.90;;;;;;5041186;28;19925;-74
2024/01/25 18:42:37;;;;;;;;;;;7.30;99.90;;;;;;5040383;28;19925;-74
2024/01/25 18:45:03;;;;;;;;;;;7.30;99.90;;;;;;5040776;28;19926;-74
2024/01/25 18:47:30;;;;;;;;;;;7.30;99.90;;;;;;5040738;28;19925;-74
2024/01/25 18:49:57;;;;;;;;;;;7.20;99.90;;;;;;5040723;28;19933;-74
2024/01/25 18:52:24;;;;;;;;;;;7.20;99.90;;;;;;5040623;28;19925;-74
2024/01/25 18:54:51;;;;;;;;;;;7.20;99.90;;;;;;5039691;28;20001;-74
2024/01/25 18:57:19;;;;;;;;;;;7.20;99.90;;;;;;5040514;28;20294;-74
2024/01/25 18:59:46;;;;;;;;;;;7.20;99.90;;;;;;5040851;28;19929;-74
2024/01/25 19:02:16;;;;;;;;;;;7.20;99.90;;;;;;5040877;28;19929;-74
2024/01/25 19:04:43;;;;;;;;;;;7.20;99.90;;;;;;5040926;28;19983;-75
2024/01/25 19:07:12;;;;;;;;;;;7.10;99.90;;;;;;5040504;28;19979;-74
2024/01/25 19:09:40;;;;;;;;;;;7.10;99.90;;;;;;5040030;28;19925;-75
2024/01/25 19:12:07;;;;;;;;;;;7.10;99.90;;;;;;5039526;28;19925;-73
2024/01/25 19:14:35;;;;;;;;;;;7.10;99.90;;;;;;5038493;28;19925;-73
2024/01/25 19:17:02;;;;;;;;;;;7.10;99.90;;;;;;5036923;28;20302;-74
2024/01/25 19:19:29;;;;;;;;;;;7.00;99.90;;;;;;5039015;28;20008;-74
2024/01/25 19:21:56;;;;;;;;;;;7.10;99.90;;;;;;5039073;28;19948;-73
2024/01/25 19:24:22;;;;;;;;;;;7.10;99.90;;;;;;5038096;28;20287;-73